sensor_id;sensor_type;location;lat;lon;timestamp;temperature;humidity
16182;DHT22;8197;51.664;7.114;2023-12-28T00:02:01;11.50;77.60
16182;DHT22;8197;51.664;7.114;2023-12-28T00:07:04;11.50;78.00
16182;DHT22;8197;51.664;7.114;2023-12-28T00:12:09;11.60;77.70
16182;DHT22;8197;51.664;7.114;2023-12-28T00:17:12;11.50;78.80
16182;DHT22;8197;51.664;7.114;2023-12-28T00:22:15;11.30;80.40
16182;DHT22;8197;51.664;7.114;2023-12-28T00:27:19;11.30;80.60
16182;DHT22;8197;51.664;7.114;2023-12-28T00:32:22;11.40;80.00
16182;DHT22;8197;51.664;7.114;2023-12-28T00:37:25;11.40;79.90
16182;DHT22;8197;51.664;7.114;2023-12-28T00:42:29;11.50;79.50
16182;DHT22;8197;51.664;7.114;2023-12-28T00:47:32;11.50;79.50
16182;DHT22;8197;51.664;7.114;2023-12-28T00:52:35;11.50;80.00
16182;DHT22;8197;51.664;7.114;2023-12-28T00:57:39;11.40;81.10
16182;DHT22;8197;51.664;7.114;2023-12-28T01:02:42;11.50;80.50
16182;DHT22;8197;51.664;7.114;2023-12-28T01:07:48;11.60;80.00
16182;DHT22;8197;51.664;7.114;2023-12-28T01:12:52;11.60;79.70
16182;DHT22;8197;51.664;7.114;2023-12-28T01:17:56;11.70;79.10
16182;DHT22;8197;51.664;7.114;2023-12-28T01:23:00;11.70;79.00
16182;DHT22;8197;51.664;7.114;2023-12-28T01:28:05;11.60;79.50
16182;DHT22;8197;51.664;7.114;2023-12-28T01:33:08;11.50;79.70
16182;DHT22;8197;51.664;7.114;2023-12-28T01:38:11;11.60;79.40
16182;DHT22;8197;51.664;7.114;2023-12-28T01:43:15;11.70;78.90
16182;DHT22;8197;51.664;7.114;2023-12-28T01:48:18;11.70;78.50
16182;DHT22;8197;51.664;7.114;2023-12-28T01:53:22;11.70;78.40
16182;DHT22;8197;51.664;7.114;2023-12-28T01:58:26;11.70;78.90
16182;DHT22;8197;51.664;7.114;2023-12-28T02:03:31;11.70;79.30
16182;DHT22;8197;51.664;7.114;2023-12-28T02:08:34;11.80;78.40
16182;DHT22;8197;51.664;7.114;2023-12-28T02:13:38;11.70;78.90
16182;DHT22;8197;51.664;7.114;2023-12-28T02:18:43;11.80;78.30
16182;DHT22;8197;51.664;7.114;2023-12-28T02:23:47;11.90;77.90
16182;DHT22;8197;51.664;7.114;2023-12-28T02:28:52;11.80;78.60
16182;DHT22;8197;51.664;7.114;2023-12-28T02:33:59;11.80;78.40
16182;DHT22;8197;51.664;7.114;2023-12-28T02:39:08;11.90;78.50
16182;DHT22;8197;51.664;7.114;2023-12-28T02:44:13;11.80;78.80
16182;DHT22;8197;51.664;7.114;2023-12-28T02:49:16;11.80;79.00
16182;DHT22;8197;51.664;7.114;2023-12-28T02:54:19;11.70;79.30
16182;DHT22;8197;51.664;7.114;2023-12-28T02:59:24;11.70;79.20
16182;DHT22;8197;51.664;7.114;2023-12-28T03:04:26;11.80;78.90
16182;DHT22;8197;51.664;7.114;2023-12-28T03:09:29;11.80;79.20
16182;DHT22;8197;51.664;7.114;2023-12-28T03:14:33;11.90;78.70
16182;DHT22;8197;51.664;7.114;2023-12-28T03:19:36;12.00;78.40
16182;DHT22;8197;51.664;7.114;2023-12-28T03:24:39;12.00;78.80
16182;DHT22;8197;51.664;7.114;2023-12-28T03:29:44;12.00;78.80
16182;DHT22;8197;51.664;7.114;2023-12-28T03:34:47;12.00;78.50
16182;DHT22;8197;51.664;7.114;2023-12-28T03:39:50;11.90;79.10
16182;DHT22;8197;51.664;7.114;2023-12-28T03:44:55;11.90;79.20
16182;DHT22;8197;51.664;7.114;2023-12-28T03:49:58;11.80;79.40
16182;DHT22;8197;51.664;7.114;2023-12-28T03:55:01;11.70;80.00
16182;DHT22;8197;51.664;7.114;2023-12-28T04:00:07;11.80;79.80
16182;DHT22;8197;51.664;7.114;2023-12-28T04:05:10;11.70;80.00
16182;DHT22;8197;51.664;7.114;2023-12-28T04:10:15;11.80;79.60
16182;DHT22;8197;51.664;7.114;2023-12-28T04:15:20;11.90;79.40
16182;DHT22;8197;51.664;7.114;2023-12-28T04:20:23;11.90;79.00
16182;DHT22;8197;51.664;7.114;2023-12-28T04:25:26;11.90;79.50
16182;DHT22;8197;51.664;7.114;2023-12-28T04:30:30;11.80;80.00
16182;DHT22;8197;51.664;7.114;2023-12-28T04:35:33;11.90;80.00
16182;DHT22;8197;51.664;7.114;2023-12-28T04:40:36;11.90;79.40
16182;DHT22;8197;51.664;7.114;2023-12-28T04:45:40;12.00;78.80
16182;DHT22;8197;51.664;7.114;2023-12-28T04:50:43;12.10;79.00
16182;DHT22;8197;51.664;7.114;2023-12-28T04:55:46;12.00;78.70
16182;DHT22;8197;51.664;7.114;2023-12-28T05:00:50;11.90;79.20
16182;DHT22;8197;51.664;7.114;2023-12-28T05:05:53;11.90;79.40
16182;DHT22;8197;51.664;7.114;2023-12-28T05:10:56;11.90;79.50
16182;DHT22;8197;51.664;7.114;2023-12-28T05:16:01;11.90;78.90
16182;DHT22;8197;51.664;7.114;2023-12-28T05:21:04;11.90;79.10
16182;DHT22;8197;51.664;7.114;2023-12-28T05:26:07;11.90;79.10
16182;DHT22;8197;51.664;7.114;2023-12-28T05:31:11;12.00;79.10
16182;DHT22;8197;51.664;7.114;2023-12-28T05:36:15;12.10;78.30
16182;DHT22;8197;51.664;7.114;2023-12-28T05:41:18;12.10;78.50
16182;DHT22;8197;51.664;7.114;2023-12-28T05:46:22;12.00;78.50
16182;DHT22;8197;51.664;7.114;2023-12-28T05:51:25;11.90;78.80
16182;DHT22;8197;51.664;7.114;2023-12-28T05:56:28;12.00;78.30
16182;DHT22;8197;51.664;7.114;2023-12-28T06:01:40;12.10;78.20
16182;DHT22;8197;51.664;7.114;2023-12-28T06:06:43;12.10;77.60
16182;DHT22;8197;51.664;7.114;2023-12-28T06:11:46;12.10;77.90
16182;DHT22;8197;51.664;7.114;2023-12-28T06:16:50;12.10;77.70
16182;DHT22;8197;51.664;7.114;2023-12-28T06:21:53;12.10;77.60
16182;DHT22;8197;51.664;7.114;2023-12-28T06:26:56;12.00;77.50
16182;DHT22;8197;51.664;7.114;2023-12-28T06:32:01;12.10;77.60
16182;DHT22;8197;51.664;7.114;2023-12-28T06:37:04;12.00;77.60
16182;DHT22;8197;51.664;7.114;2023-12-28T06:42:07;12.10;77.50
16182;DHT22;8197;51.664;7.114;2023-12-28T06:47:11;12.10;77.20
16182;DHT22;8197;51.664;7.114;2023-12-28T06:52:14;12.10;77.30
16182;DHT22;8197;51.664;7.114;2023-12-28T06:57:18;12.10;76.60
16182;DHT22;8197;51.664;7.114;2023-12-28T07:02:22;12.10;76.70
16182;DHT22;8197;51.664;7.114;2023-12-28T07:07:25;12.10;76.20
16182;DHT22;8197;51.664;7.114;2023-12-28T07:12:28;12.20;76.80
16182;DHT22;8197;51.664;7.114;2023-12-28T07:17:32;12.20;75.80
16182;DHT22;8197;51.664;7.114;2023-12-28T07:22:36;12.20;76.70
16182;DHT22;8197;51.664;7.114;2023-12-28T07:27:39;12.20;76.20
16182;DHT22;8197;51.664;7.114;2023-12-28T07:32:44;12.20;75.70
16182;DHT22;8197;51.664;7.114;2023-12-28T07:37:47;12.20;76.10
16182;DHT22;8197;51.664;7.114;2023-12-28T07:42:51;12.30;75.70
16182;DHT22;8197;51.664;7.114;2023-12-28T07:47:55;12.20;75.70
16182;DHT22;8197;51.664;7.114;2023-12-28T07:52:59;12.30;75.90
16182;DHT22;8197;51.664;7.114;2023-12-28T07:58:03;12.20;75.70
16182;DHT22;8197;51.664;7.114;2023-12-28T08:03:08;12.30;75.60
16182;DHT22;8197;51.664;7.114;2023-12-28T08:08:10;12.30;75.90
16182;DHT22;8197;51.664;7.114;2023-12-28T08:13:13;12.30;75.10
16182;DHT22;8197;51.664;7.114;2023-12-28T08:18:21;12.30;75.10
16182;DHT22;8197;51.664;7.114;2023-12-28T08:23:24;12.30;75.90
16182;DHT22;8197;51.664;7.114;2023-12-28T08:28:26;12.30;75.30
16182;DHT22;8197;51.664;7.114;2023-12-28T08:33:31;12.30;75.60
16182;DHT22;8197;51.664;7.114;2023-12-28T08:38:34;12.30;75.50
16182;DHT22;8197;51.664;7.114;2023-12-28T08:43:37;12.40;75.50
16182;DHT22;8197;51.664;7.114;2023-12-28T08:48:41;12.30;75.70
16182;DHT22;8197;51.664;7.114;2023-12-28T08:53:45;12.30;75.60
16182;DHT22;8197;51.664;7.114;2023-12-28T08:58:49;12.40;75.50
16182;DHT22;8197;51.664;7.114;2023-12-28T09:03:54;12.40;74.70
16182;DHT22;8197;51.664;7.114;2023-12-28T09:08:57;12.30;75.70
16182;DHT22;8197;51.664;7.114;2023-12-28T09:14:00;12.30;75.70
16182;DHT22;8197;51.664;7.114;2023-12-28T09:19:04;12.30;75.20
16182;DHT22;8197;51.664;7.114;2023-12-28T09:24:08;12.30;75.40
16182;DHT22;8197;51.664;7.114;2023-12-28T09:29:11;12.30;75.70
16182;DHT22;8197;51.664;7.114;2023-12-28T09:34:15;12.30;75.10
16182;DHT22;8197;51.664;7.114;2023-12-28T09:39:18;12.30;75.50
16182;DHT22;8197;51.664;7.114;2023-12-28T09:44:25;12.40;75.20
16182;DHT22;8197;51.664;7.114;2023-12-28T09:49:30;12.50;74.60
16182;DHT22;8197;51.664;7.114;2023-12-28T09:54:35;12.50;74.50
16182;DHT22;8197;51.664;7.114;2023-12-28T09:59:38;12.50;74.70
16182;DHT22;8197;51.664;7.114;2023-12-28T10:04:43;12.60;74.70
16182;DHT22;8197;51.664;7.114;2023-12-28T10:09:46;12.60;74.60
16182;DHT22;8197;51.664;7.114;2023-12-28T10:14:50;12.60;74.10
16182;DHT22;8197;51.664;7.114;2023-12-28T10:19:54;12.50;74.70
16182;DHT22;8197;51.664;7.114;2023-12-28T10:25:06;12.50;74.80
16182;DHT22;8197;51.664;7.114;2023-12-28T10:30:10;12.50;74.50
16182;DHT22;8197;51.664;7.114;2023-12-28T10:35:15;12.40;74.60
16182;DHT22;8197;51.664;7.114;2023-12-28T10:40:21;12.40;74.80
16182;DHT22;8197;51.664;7.114;2023-12-28T10:45:28;12.50;75.20
16182;DHT22;8197;51.664;7.114;2023-12-28T10:50:38;12.50;74.50
16182;DHT22;8197;51.664;7.114;2023-12-28T10:55:50;12.50;74.30
16182;DHT22;8197;51.664;7.114;2023-12-28T11:00:59;12.50;74.20
16182;DHT22;8197;51.664;7.114;2023-12-28T11:06:07;12.60;74.60
16182;DHT22;8197;51.664;7.114;2023-12-28T11:11:12;12.70;74.20
16182;DHT22;8197;51.664;7.114;2023-12-28T11:16:16;12.70;73.30
16182;DHT22;8197;51.664;7.114;2023-12-28T11:21:21;12.60;73.40
16182;DHT22;8197;51.664;7.114;2023-12-28T11:26:25;12.60;73.80
16182;DHT22;8197;51.664;7.114;2023-12-28T11:31:32;12.70;74.10
16182;DHT22;8197;51.664;7.114;2023-12-28T11:36:49;12.80;73.60
16182;DHT22;8197;51.664;7.114;2023-12-28T11:41:59;12.80;73.80
16182;DHT22;8197;51.664;7.114;2023-12-28T11:47:11;12.80;73.60
16182;DHT22;8197;51.664;7.114;2023-12-28T11:52:24;12.80;73.60
16182;DHT22;8197;51.664;7.114;2023-12-28T11:57:27;12.80;73.70
16182;DHT22;8197;51.664;7.114;2023-12-28T12:02:30;12.90;73.00
16182;DHT22;8197;51.664;7.114;2023-12-28T12:07:35;12.90;72.80
16182;DHT22;8197;51.664;7.114;2023-12-28T12:12:38;12.90;72.80
16182;DHT22;8197;51.664;7.114;2023-12-28T12:17:41;12.90;72.60
16182;DHT22;8197;51.664;7.114;2023-12-28T12:22:46;13.00;73.10
16182;DHT22;8197;51.664;7.114;2023-12-28T12:27:49;12.90;72.60
16182;DHT22;8197;51.664;7.114;2023-12-28T12:32:52;12.90;72.60
16182;DHT22;8197;51.664;7.114;2023-12-28T12:37:57;12.80;71.60
16182;DHT22;8197;51.664;7.114;2023-12-28T12:43:00;12.80;71.90
16182;DHT22;8197;51.664;7.114;2023-12-28T12:48:04;12.80;72.40
16182;DHT22;8197;51.664;7.114;2023-12-28T12:53:09;12.80;72.40
16182;DHT22;8197;51.664;7.114;2023-12-28T12:58:13;12.80;71.80
16182;DHT22;8197;51.664;7.114;2023-12-28T13:03:19;12.90;71.50
16182;DHT22;8197;51.664;7.114;2023-12-28T13:08:24;12.90;71.30
16182;DHT22;8197;51.664;7.114;2023-12-28T13:13:27;12.90;71.50
16182;DHT22;8197;51.664;7.114;2023-12-28T13:18:29;12.90;71.90
16182;DHT22;8197;51.664;7.114;2023-12-28T13:23:35;12.90;71.20
16182;DHT22;8197;51.664;7.114;2023-12-28T13:28:38;12.80;71.00
16182;DHT22;8197;51.664;7.114;2023-12-28T13:33:41;12.80;71.20
16182;DHT22;8197;51.664;7.114;2023-12-28T13:38:45;12.80;71.80
16182;DHT22;8197;51.664;7.114;2023-12-28T13:43:49;12.80;71.60
16182;DHT22;8197;51.664;7.114;2023-12-28T13:48:52;12.90;71.00
16182;DHT22;8197;51.664;7.114;2023-12-28T13:53:56;12.90;70.80
16182;DHT22;8197;51.664;7.114;2023-12-28T13:58:59;12.90;70.40
16182;DHT22;8197;51.664;7.114;2023-12-28T14:04:02;12.90;70.40
16182;DHT22;8197;51.664;7.114;2023-12-28T14:09:07;12.90;70.30
16182;DHT22;8197;51.664;7.114;2023-12-28T14:14:10;12.90;70.70
16182;DHT22;8197;51.664;7.114;2023-12-28T14:19:13;12.90;70.90
16182;DHT22;8197;51.664;7.114;2023-12-28T14:24:18;12.90;69.90
16182;DHT22;8197;51.664;7.114;2023-12-28T14:29:22;12.90;69.90
16182;DHT22;8197;51.664;7.114;2023-12-28T14:34:25;12.90;70.20
16182;DHT22;8197;51.664;7.114;2023-12-28T14:39:30;12.90;70.40
16182;DHT22;8197;51.664;7.114;2023-12-28T14:44:33;12.90;70.00
16182;DHT22;8197;51.664;7.114;2023-12-28T14:49:36;12.80;69.80
16182;DHT22;8197;51.664;7.114;2023-12-28T14:54:40;12.80;69.60
16182;DHT22;8197;51.664;7.114;2023-12-28T14:59:45;12.70;70.10
16182;DHT22;8197;51.664;7.114;2023-12-28T15:04:47;12.80;70.50
16182;DHT22;8197;51.664;7.114;2023-12-28T15:09:53;12.70;70.30
16182;DHT22;8197;51.664;7.114;2023-12-28T15:14:58;12.80;70.00
16182;DHT22;8197;51.664;7.114;2023-12-28T15:20:01;12.70;70.50
16182;DHT22;8197;51.664;7.114;2023-12-28T15:25:07;12.80;69.90
16182;DHT22;8197;51.664;7.114;2023-12-28T15:30:10;12.80;70.50
16182;DHT22;8197;51.664;7.114;2023-12-28T15:35:14;12.80;69.60
16182;DHT22;8197;51.664;7.114;2023-12-28T15:40:20;12.80;69.50
16182;DHT22;8197;51.664;7.114;2023-12-28T15:45:23;12.80;70.20
16182;DHT22;8197;51.664;7.114;2023-12-28T15:50:26;12.80;69.70
16182;DHT22;8197;51.664;7.114;2023-12-28T15:55:30;12.70;69.60
16182;DHT22;8197;51.664;7.114;2023-12-28T16:00:33;12.70;70.00
16182;DHT22;8197;51.664;7.114;2023-12-28T16:05:37;12.80;69.30
16182;DHT22;8197;51.664;7.114;2023-12-28T16:10:44;12.70;70.10
16182;DHT22;8197;51.664;7.114;2023-12-28T16:15:47;12.70;69.00
16182;DHT22;8197;51.664;7.114;2023-12-28T16:20:51;12.70;70.00
16182;DHT22;8197;51.664;7.114;2023-12-28T16:25:55;12.70;69.30
16182;DHT22;8197;51.664;7.114;2023-12-28T16:30:58;12.60;69.10
16182;DHT22;8197;51.664;7.114;2023-12-28T16:36:01;12.60;69.10
16182;DHT22;8197;51.664;7.114;2023-12-28T16:41:05;12.60;69.80
16182;DHT22;8197;51.664;7.114;2023-12-28T16:46:08;12.60;69.10
16182;DHT22;8197;51.664;7.114;2023-12-28T16:51:12;12.60;68.70
16182;DHT22;8197;51.664;7.114;2023-12-28T16:56:19;12.70;69.70
16182;DHT22;8197;51.664;7.114;2023-12-28T17:01:22;12.60;69.60
16182;DHT22;8197;51.664;7.114;2023-12-28T17:06:26;12.70;68.60
16182;DHT22;8197;51.664;7.114;2023-12-28T17:11:31;12.70;69.20
16182;DHT22;8197;51.664;7.114;2023-12-28T17:16:34;12.60;68.90
16182;DHT22;8197;51.664;7.114;2023-12-28T17:21:39;12.60;68.70
16182;DHT22;8197;51.664;7.114;2023-12-28T17:26:47;12.60;69.10
16182;DHT22;8197;51.664;7.114;2023-12-28T17:31:53;12.60;69.10
16182;DHT22;8197;51.664;7.114;2023-12-28T17:36:57;12.70;69.10
16182;DHT22;8197;51.664;7.114;2023-12-28T17:42:02;12.60;69.10
16182;DHT22;8197;51.664;7.114;2023-12-28T17:47:08;12.60;69.60
16182;DHT22;8197;51.664;7.114;2023-12-28T17:52:17;12.70;69.50
16182;DHT22;8197;51.664;7.114;2023-12-28T17:57:22;12.60;69.20
16182;DHT22;8197;51.664;7.114;2023-12-28T18:02:25;12.70;69.70
16182;DHT22;8197;51.664;7.114;2023-12-28T18:07:31;12.60;69.50
16182;DHT22;8197;51.664;7.114;2023-12-28T18:12:35;12.60;69.60
16182;DHT22;8197;51.664;7.114;2023-12-28T18:17:38;12.60;70.10
16182;DHT22;8197;51.664;7.114;2023-12-28T18:22:41;12.60;69.50
16182;DHT22;8197;51.664;7.114;2023-12-28T18:27:45;12.60;69.90
16182;DHT22;8197;51.664;7.114;2023-12-28T18:32:48;12.50;69.70
16182;DHT22;8197;51.664;7.114;2023-12-28T18:37:54;12.60;69.60
16182;DHT22;8197;51.664;7.114;2023-12-28T18:42:59;12.40;69.40
16182;DHT22;8197;51.664;7.114;2023-12-28T18:48:02;12.50;69.50
16182;DHT22;8197;51.664;7.114;2023-12-28T18:53:06;12.50;69.60
16182;DHT22;8197;51.664;7.114;2023-12-28T18:58:11;12.50;69.40
16182;DHT22;8197;51.664;7.114;2023-12-28T19:03:14;12.50;69.00
16182;DHT22;8197;51.664;7.114;2023-12-28T19:08:17;12.50;68.80
16182;DHT22;8197;51.664;7.114;2023-12-28T19:13:21;12.50;69.30
16182;DHT22;8197;51.664;7.114;2023-12-28T19:18:24;12.60;69.00
16182;DHT22;8197;51.664;7.114;2023-12-28T19:23:28;12.50;68.80
16182;DHT22;8197;51.664;7.114;2023-12-28T19:28:32;12.40;69.00
16182;DHT22;8197;51.664;7.114;2023-12-28T19:33:35;12.50;68.80
16182;DHT22;8197;51.664;7.114;2023-12-28T19:38:38;12.50;68.90
16182;DHT22;8197;51.664;7.114;2023-12-28T19:43:43;12.50;68.80
16182;DHT22;8197;51.664;7.114;2023-12-28T19:48:47;12.50;69.00
16182;DHT22;8197;51.664;7.114;2023-12-28T19:53:51;12.50;69.70
16182;DHT22;8197;51.664;7.114;2023-12-28T19:58:55;12.50;69.40
16182;DHT22;8197;51.664;7.114;2023-12-28T20:03:58;12.60;69.30
16182;DHT22;8197;51.664;7.114;2023-12-28T20:09:01;12.50;68.90
16182;DHT22;8197;51.664;7.114;2023-12-28T20:14:06;12.50;69.00
16182;DHT22;8197;51.664;7.114;2023-12-28T20:19:09;12.60;68.70
16182;DHT22;8197;51.664;7.114;2023-12-28T20:24:12;12.70;69.20
16182;DHT22;8197;51.664;7.114;2023-12-28T20:29:17;12.60;68.90
16182;DHT22;8197;51.664;7.114;2023-12-28T20:34:19;12.70;68.80
16182;DHT22;8197;51.664;7.114;2023-12-28T20:39:23;12.60;68.80
16182;DHT22;8197;51.664;7.114;2023-12-28T20:44:27;12.60;68.80
16182;DHT22;8197;51.664;7.114;2023-12-28T20:49:30;12.60;69.10
16182;DHT22;8197;51.664;7.114;2023-12-28T20:54:46;12.60;69.10
16182;DHT22;8197;51.664;7.114;2023-12-28T20:59:51;12.60;69.30
16182;DHT22;8197;51.664;7.114;2023-12-28T21:04:54;12.60;69.10
16182;DHT22;8197;51.664;7.114;2023-12-28T21:09:57;12.60;69.30
16182;DHT22;8197;51.664;7.114;2023-12-28T21:15:02;12.60;69.20
16182;DHT22;8197;51.664;7.114;2023-12-28T21:20:06;12.50;69.60
16182;DHT22;8197;51.664;7.114;2023-12-28T21:25:11;12.50;69.70
16182;DHT22;8197;51.664;7.114;2023-12-28T21:30:16;12.40;69.60
16182;DHT22;8197;51.664;7.114;2023-12-28T21:35:19;12.40;69.80
16182;DHT22;8197;51.664;7.114;2023-12-28T21:40:22;12.40;70.20
16182;DHT22;8197;51.664;7.114;2023-12-28T21:45:30;12.50;69.50
16182;DHT22;8197;51.664;7.114;2023-12-28T21:50:33;12.40;70.20
16182;DHT22;8197;51.664;7.114;2023-12-28T21:55:36;12.50;70.00
16182;DHT22;8197;51.664;7.114;2023-12-28T22:00:40;12.50;70.00
16182;DHT22;8197;51.664;7.114;2023-12-28T22:05:43;12.50;70.10
16182;DHT22;8197;51.664;7.114;2023-12-28T22:10:47;12.50;69.80
16182;DHT22;8197;51.664;7.114;2023-12-28T22:15:58;12.60;69.60
16182;DHT22;8197;51.664;7.114;2023-12-28T22:21:02;12.50;69.70
16182;DHT22;8197;51.664;7.114;2023-12-28T22:26:05;12.40;70.00
16182;DHT22;8197;51.664;7.114;2023-12-28T22:31:10;12.40;70.30
16182;DHT22;8197;51.664;7.114;2023-12-28T22:36:16;12.40;70.20
16182;DHT22;8197;51.664;7.114;2023-12-28T22:41:19;12.40;70.30
16182;DHT22;8197;51.664;7.114;2023-12-28T22:46:25;12.40;70.10
16182;DHT22;8197;51.664;7.114;2023-12-28T22:51:28;12.40;70.30
16182;DHT22;8197;51.664;7.114;2023-12-28T22:56:31;12.40;70.70
16182;DHT22;8197;51.664;7.114;2023-12-28T23:01:37;12.40;71.00
16182;DHT22;8197;51.664;7.114;2023-12-28T23:06:40;12.40;71.00
16182;DHT22;8197;51.664;7.114;2023-12-28T23:11:44;12.50;70.80
16182;DHT22;8197;51.664;7.114;2023-12-28T23:16:48;12.50;70.80
16182;DHT22;8197;51.664;7.114;2023-12-28T23:21:51;12.50;71.00
16182;DHT22;8197;51.664;7.114;2023-12-28T23:26:54;12.50;70.90
16182;DHT22;8197;51.664;7.114;2023-12-28T23:31:58;12.50;71.00
16182;DHT22;8197;51.664;7.114;2023-12-28T23:37:01;12.50;71.30
16182;DHT22;8197;51.664;7.114;2023-12-28T23:42:04;12.50;71.10
16182;DHT22;8197;51.664;7.114;2023-12-28T23:47:09;12.60;71.20
16182;DHT22;8197;51.664;7.114;2023-12-28T23:52:12;12.50;71.50
16182;DHT22;8197;51.664;7.114;2023-12-28T23:57:17;12.50;71.70
